• Join FlightAware (Why Join?)
  • Login
  • US Flag 
10:11PM EDT


 

Airport Tracker/Info


-or-


 

Live Flight TrackerFlight Track Log ✈ N7339F ✈ 10-Nov-2013 ✈ KDNV - KCFJ

Flight Track Log - Related Links

Times and Time Zones

All times are in EST time to prevent confusion due to time zone crossing. See the N7339F flight status page for this flight to view local times or setup timezone preferences in your user account.

Time Position Orientation Groundspeed Altitude Reporting Facility
EST Latitude Longitude Course Direction KTS MPH feet Rate Location/Type
03:19PM 40.1201 -87.3569 114° Southeast  Level FlightAware Approximate
03:20PM 40.1049 -87.3107 118° Southeast  Level Estimated
03:21PM 40.0888 -87.2649 115° Southeast  Level FlightAware Approximate
03:22PM 40.0737 -87.2186 90° East  Level Estimated
03:23PM 40.0586 -87.1723 123° Southeast  Level Estimated
03:24PM 40.0434 -87.1261 123° Southeast  Level Estimated
03:25PM 40.0283 -87.0798 123° Southeast  Level Estimated
03:25PM 40.0333 -87.1500 123° Southeast 106 122 3,500  Level Indianapolis TRACON
03:26PM 40.0131 -87.0336 123° Southeast  Level Estimated
03:27PM 39.9979 -86.9874 123° Southeast  Level Estimated
03:27PM 40.0167 -87.0833 90° East 110 127 3,500  Level Indianapolis TRACON
03:28PM 39.9827 -86.9413 123° Southeast  Level Estimated
03:28PM 40.0000 -87.0500 123° Southeast 110 127 3,500  Level Indianapolis TRACON
03:29PM 39.9667 -86.9167 123° Southeast  Level FlightAware Approximate
03:29PM 40.0000 -87.0000 90° East 132 152 3,500  Level Indianapolis TRACON
03:30PM 39.9756 -86.9199 123° Southeast  Level Estimated
03:30PM 40.0167 -86.9833 37° Northeast 107 123 3,500  Level Indianapolis TRACON
03:31PM 39.9756 -86.9199 123° Southeast  Level Estimated
03:31PM 40.0333 -86.9333 66° East 104 120 3,600  Level Indianapolis TRACON
03:32PM 40.0500 -86.9167 37° Northeast 107 123 3,500 -60 Descending Indianapolis TRACON
03:33PM 40.0500 -86.8833 90° East 106 122 3,500  Level Indianapolis TRACON
03:34PM 40.0667 -86.8333 66° East 103 119 3,500  Level Indianapolis TRACON
03:35PM 40.0833 -86.8000 57° Northeast 104 120 3,500  Level Indianapolis TRACON
03:36PM 40.1000 -86.7667 57° Northeast 107 123 3,600  Climbing Indianapolis TRACON
03:37PM 40.1167 -86.7500 37° Northeast 110 127 3,500  Descending Indianapolis TRACON
03:38PM 40.1500 -86.7167 37° Northeast 104 120 3,600  Climbing Indianapolis TRACON
03:39PM 40.1667 -86.7000 37° Northeast 108 124 3,600 -240 Level Indianapolis TRACON
03:40PM 40.1667 -86.7167 270° West 118 136 3,200 -420 Descending Indianapolis TRACON
03:41PM 40.1333 -86.7333 201° Southwest 116 133 2,800 -420 Descending Indianapolis TRACON